Time,TemperatureF,DewpointF,PressureIn,WindDirection,WindDirectionDegrees,WindSpeedMPH,WindSpeedGustMPH,Humidity,HourlyPrecipIn,Conditions,Clouds,dailyrainin,SolarRadiationWatts/m^2,SoftwareType,DateUTC
2013-05-03 00:00:00,58.0,42.0,30.31,SW,232,2.0,-999.0,56,-99.99,,,-99.99,0.000000,,2013-05-03 04:00:00,
2013-05-03 00:53:00,58.0,42.0,30.31,SW,232,2.0,-999.0,56,-99.99,,,-99.99,0.000000,,2013-05-03 04:53:00,
2013-05-03 04:00:00,54.0,41.0,30.31,WSW,238,3.0,-999.0,61,-99.99,,,-99.99,0.000000,,2013-05-03 08:00:00,
2013-05-03 04:53:00,54.0,41.0,30.31,WSW,238,3.0,-999.0,61,-99.99,,,-99.99,0.000000,,2013-05-03 08:53:00,
2013-05-03 05:00:00,50.0,42.0,30.31,SE,143,1.0,-999.0,72,-99.99,,,-99.99,0.000000,,2013-05-03 09:00:00,
2013-05-03 05:53:00,50.0,42.0,30.31,SE,143,1.0,-999.0,72,-99.99,,,-99.99,0.000000,,2013-05-03 09:53:00,
2013-05-03 06:00:00,51.0,42.0,30.33,ESE,106,1.0,-999.0,71,-99.99,,,-99.99,0.750000,,2013-05-03 10:00:00,
2013-05-03 06:52:00,51.0,42.0,30.33,ESE,106,1.0,-999.0,71,-99.99,,,-99.99,0.750000,,2013-05-03 10:52:00,
2013-05-03 07:00:00,51.0,44.0,30.34,SSE,166,2.0,-999.0,76,-99.99,,,-99.99,46.380001,,2013-05-03 11:00:00,
2013-05-03 07:52:00,51.0,44.0,30.34,SSE,166,2.0,-999.0,76,-99.99,,,-99.99,46.380001,,2013-05-03 11:52:00,
2013-05-03 08:00:00,61.0,43.0,30.36,South,176,6.0,-999.0,53,-99.99,,,-99.99,226.800003,,2013-05-03 12:00:00,
2013-05-03 08:52:00,61.0,43.0,30.36,South,176,6.0,-999.0,53,-99.99,,,-99.99,226.800003,,2013-05-03 12:52:00,
2013-05-03 09:00:00,62.0,43.0,30.36,SSE,154,10.0,-999.0,49,-99.99,,,-99.99,431.899994,,2013-05-03 13:00:00,
2013-05-03 09:52:00,62.0,43.0,30.36,SSE,154,10.0,-999.0,49,-99.99,,,-99.99,431.899994,,2013-05-03 13:52:00,
2013-05-03 10:00:00,64.0,43.0,30.34,SSE,147,13.0,-999.0,47,-99.99,,,-99.99,622.299988,,2013-05-03 14:00:00,
2013-05-03 10:52:00,64.0,43.0,30.34,SSE,147,13.0,-999.0,47,-99.99,,,-99.99,622.299988,,2013-05-03 14:52:00,
2013-05-03 11:00:00,66.0,41.0,30.34,SE,140,14.0,-999.0,41,-99.99,,,-99.99,785.799988,,2013-05-03 15:00:00,
2013-05-03 11:53:00,66.0,41.0,30.34,SE,140,14.0,-999.0,41,-99.99,,,-99.99,785.799988,,2013-05-03 15:53:00,
2013-05-03 12:00:00,68.0,41.0,30.33,SE,143,14.0,-999.0,37,-99.99,,,-99.99,901.000000,,2013-05-03 16:00:00,
2013-05-03 12:52:00,68.0,41.0,30.33,SE,143,14.0,-999.0,37,-99.99,,,-99.99,901.000000,,2013-05-03 16:52:00,
2013-05-03 13:00:00,70.0,39.0,30.32,SE,131,12.0,-999.0,32,-99.99,,,-99.99,958.000000,,2013-05-03 17:00:00,
2013-05-03 13:52:00,70.0,39.0,30.32,SE,131,12.0,-999.0,32,-99.99,,,-99.99,958.000000,,2013-05-03 17:52:00,
2013-05-03 14:00:00,72.0,40.0,30.30,ESE,121,9.0,-999.0,32,-99.99,,,-99.99,965.000000,,2013-05-03 18:00:00,
2013-05-03 14:52:00,72.0,40.0,30.30,ESE,121,9.0,-999.0,32,-99.99,,,-99.99,965.000000,,2013-05-03 18:52:00,
2013-05-03 15:00:00,72.0,48.0,30.29,ESE,121,7.0,-999.0,43,-99.99,,,-99.99,915.000000,,2013-05-03 19:00:00,
2013-05-03 15:52:00,72.0,48.0,30.29,ESE,121,7.0,-999.0,43,-99.99,,,-99.99,915.000000,,2013-05-03 19:52:00,
2013-05-03 16:00:00,72.0,41.0,30.27,ESE,102,8.0,-999.0,33,-99.99,,,-99.99,776.299988,,2013-05-03 20:00:00,
2013-05-03 16:52:00,72.0,41.0,30.27,ESE,102,8.0,-999.0,33,-99.99,,,-99.99,776.299988,,2013-05-03 20:52:00,
2013-05-03 17:00:00,73.0,39.0,30.26,East,97,9.0,-999.0,29,-99.99,,,-99.99,640.799988,,2013-05-03 21:00:00,
2013-05-03 17:53:00,73.0,39.0,30.26,East,97,9.0,-999.0,29,-99.99,,,-99.99,640.799988,,2013-05-03 21:53:00,
2013-05-03 20:00:00,69.0,40.0,30.25,SE,140,4.0,-999.0,35,-99.99,,,-99.99,71.199997,,2013-05-04 00:00:00,
2013-05-03 20:52:00,69.0,40.0,30.25,SE,140,4.0,-999.0,35,-99.99,,,-99.99,71.199997,,2013-05-04 00:52:00,
2013-05-03 21:00:00,65.0,44.0,30.25,South,183,3.0,-999.0,46,-99.99,,,-99.99,1.940000,,2013-05-04 01:00:00,
2013-05-03 21:52:00,65.0,44.0,30.25,South,183,3.0,-999.0,46,-99.99,,,-99.99,1.940000,,2013-05-04 01:52:00,
2013-05-03 22:00:00,61.0,42.0,30.27,SSE,167,3.0,-999.0,49,-99.99,,,-99.99,0.000000,,2013-05-04 02:00:00,
2013-05-03 22:52:00,61.0,42.0,30.27,SSE,167,3.0,-999.0,49,-99.99,,,-99.99,0.000000,,2013-05-04 02:52:00,
2013-05-03 23:00:00,59.0,42.0,30.28,SE,128,1.0,-999.0,53,-99.99,,,-99.99,0.000000,,2013-05-04 03:00:00,
2013-05-03 23:53:00,59.0,42.0,30.28,SE,128,1.0,-999.0,53,-99.99,,,-99.99,0.000000,,2013-05-04 03:53:00,